Time;durP1;ratioP1;P1;durP2;ratioP2;P2;SDS_P1;SDS_P2;PMS_P1;PMS_P2;Temp;Humidity;BMP_temperature;BMP_pressure;BME280_temperature;BME280_humidity;BME280_pressure;Samples;Min_cycle;Max_cycle;Signal;HPM_P1;HPM_P2
2022/01/06 00:04:18;;;;;;;;;;;;;;;;;;10235312;28;20518;-77
2022/01/06 00:09:21;;;;;;;3.30;1.20;;;;;;;;;;10235056;28;19922;-78
2022/01/06 00:14:39;;;;;;;1.20;0.60;;;;;;;;;;10235316;28;20066;-78
2022/01/06 00:25:10;;;;;;;4.13;1.20;;;;;;;;;;10254405;23;20031;-72
2022/01/06 00:30:14;;;;;;;3.40;1.03;;;;;;;;;;10229551;28;20062;-73
2022/01/06 00:35:17;;;;;;;3.60;1.10;;;;;;;;;;10238642;28;20038;-69
2022/01/06 00:40:21;;;;;;;1.87;1.00;;;;;;;;;;10250628;28;20047;-72
2022/01/06 00:45:29;;;;;;;6.67;1.20;;;;;;;;;;10246561;28;20500;-72
2022/01/06 00:50:33;;;;;;;2.60;0.77;;;;;;;;;;10248918;28;20047;-72
2022/01/06 00:55:36;;;;;;;2.40;0.60;;;;;;;;;;10270648;28;20283;-72
2022/01/06 01:00:41;;;;;;;8.80;1.60;;;;;;;;;;10243105;28;20347;-72
2022/01/06 01:05:46;;;;;;;4.50;1.30;;;;;;;;;;10250709;28;20098;-71
2022/01/06 01:10:48;;;;;;;;;;;;;;;;;;10249353;28;20125;-72
2022/01/06 01:15:58;;;;;;;3.20;1.13;;;;;;;;;;10247714;28;19921;-72
2022/01/06 01:21:01;;;;;;;5.97;2.03;;;;;;;;;;10242513;28;20614;-71
2022/01/06 01:26:04;;;;;;;0.10;0.10;;;;;;;;;;10253592;28;20039;-73
2022/01/06 01:31:22;;;;;;;1.00;0.73;;;;;;;;;;10253262;28;20039;-73
2022/01/06 01:36:26;;;;;;;4.27;1.60;;;;;;;;;;10253420;28;20058;-71
2022/01/06 01:41:29;;;;;;;6.27;1.50;;;;;;;;;;10255285;28;20157;-72
2022/01/06 01:46:42;;;;;;;4.93;1.40;;;;;;;;;;10245869;28;20042;-73
2022/01/06 01:51:46;;;;;;;1.83;0.52;;;;;;;;;;10260517;28;20043;-73
2022/01/06 01:56:49;;;;;;;3.53;0.93;;;;;;;;;;10242888;28;20416;-73
2022/01/06 02:01:54;;;;;;;0.63;0.40;;;;;;;;;;10261964;28;20086;-73
2022/01/06 02:06:57;;;;;;;2.27;0.80;;;;;;;;;;10270576;28;20120;-71
2022/01/06 02:12:00;;;;;;;1.50;0.47;;;;;;;;;;10253907;28;20082;-71
2022/01/06 02:17:12;;;;;;;3.90;0.77;;;;;;;;;;10253748;28;20134;-71
2022/01/06 02:22:17;;;;;;;2.90;0.77;;;;;;;;;;10255170;28;20054;-71
2022/01/06 02:27:20;;;;;;;4.63;1.40;;;;;;;;;;10249194;28;20393;-71
2022/01/06 02:32:23;;;;;;;0.55;0.43;;;;;;;;;;10259234;28;20035;-70
2022/01/06 02:37:27;;;;;;;0.97;0.67;;;;;;;;;;10249440;28;20065;-70
2022/01/06 02:42:31;;;;;;;;;;;;;;;;;;10252169;28;20643;-71
2022/01/06 02:47:34;;;;;;;3.50;1.40;;;;;;;;;;10247107;28;19922;-71
2022/01/06 02:52:38;;;;;;;1.13;0.60;;;;;;;;;;10258282;28;20043;-69
2022/01/06 02:57:42;;;;;;;4.83;1.23;;;;;;;;;;10246554;28;20519;-71
2022/01/06 03:02:46;;;;;;;0.77;0.73;;;;;;;;;;10261845;28;20472;-70
2022/01/06 03:07:51;;;;;;;0.60;0.57;;;;;;;;;;10281889;28;20296;-72
2022/01/06 03:12:54;;;;;;;1.77;1.10;;;;;;;;;;10268844;28;20071;-70
2022/01/06 03:17:57;;;;;;;4.57;0.70;;;;;;;;;;10250778;28;20106;-71
2022/01/06 03:23:02;;;;;;;0.50;0.33;;;;;;;;;;10247457;28;20041;-70
2022/01/06 03:28:05;;;;;;;4.13;1.23;;;;;;;;;;10252506;28;20053;-72
2022/01/06 03:33:08;;;;;;;2.90;1.00;;;;;;;;;;10262141;28;20432;-71
2022/01/06 03:38:12;;;;;;;0.43;0.40;;;;;;;;;;10245091;28;20520;-70
2022/01/06 03:43:15;;;;;;;;;;;;;;;;;;10250172;28;20472;-71
2022/01/06 03:48:18;;;;;;;2.97;2.73;;;;;;;;;;10249318;28;19934;-71
2022/01/06 03:53:22;;;;;;;3.27;1.27;;;;;;;;;;10255375;28;20530;-71
2022/01/06 03:58:25;;;;;;;;;;;;;;;;;;10254149;28;20479;-70
2022/01/06 04:03:28;;;;;;;1.43;0.60;;;;;;;;;;10248760;28;20389;-72
2022/01/06 04:08:32;;;;;;;0.80;0.60;;;;;;;;;;10245159;28;20388;-72
2022/01/06 04:13:35;;;;;;;0.60;0.50;;;;;;;;;;10254348;28;20042;-72
2022/01/06 04:18:38;;;;;;;3.00;1.17;;;;;;;;;;10245059;28;20035;-71
2022/01/06 04:23:42;;;;;;;7.10;2.00;;;;;;;;;;10250033;28;20475;-71
2022/01/06 04:28:46;;;;;;;3.03;1.23;;;;;;;;;;10242469;28;20043;-72
2022/01/06 04:33:49;;;;;;;3.17;1.30;;;;;;;;;;10246753;28;20472;-71
2022/01/06 04:38:53;;;;;;;3.73;1.50;;;;;;;;;;10244917;28;20086;-71
2022/01/06 04:43:56;;;;;;;2.03;1.00;;;;;;;;;;10256376;28;20114;-71
2022/01/06 04:48:59;;;;;;;1.00;0.67;;;;;;;;;;10244590;28;20063;-69
2022/01/06 04:54:04;;;;;;;1.47;1.27;;;;;;;;;;10253063;28;20034;-70
2022/01/06 04:59:08;;;;;;;1.40;0.53;;;;;;;;;;10253713;28;20039;-69
2022/01/06 05:04:11;;;;;;;3.43;1.33;;;;;;;;;;10260637;28;20047;-70
2022/01/06 05:09:15;;;;;;;3.33;1.03;;;;;;;;;;10252315;28;20630;-71
2022/01/06 05:14:18;;;;;;;0.60;0.50;;;;;;;;;;10254247;28;20102;-71
2022/01/06 05:19:21;;;;;;;3.63;1.53;;;;;;;;;;10250721;28;20098;-69
2022/01/06 05:24:26;;;;;;;3.37;1.30;;;;;;;;;;10253933;28;20384;-71
2022/01/06 05:29:28;;;;;;;2.27;0.63;;;;;;;;;;10252230;28;20042;-69
2022/01/06 05:34:31;;;;;;;1.30;0.80;;;;;;;;;;10262887;28;20276;-69
2022/01/06 05:39:36;;;;;;;2.08;1.13;;;;;;;;;;10267775;28;20567;-71
2022/01/06 05:44:40;;;;;;;1.77;1.03;;;;;;;;;;10291835;28;20031;-71
2022/01/06 05:49:43;;;;;;;5.25;1.70;;;;;;;;;;10279651;28;20089;-71
2022/01/06 05:54:48;;;;;;;1.93;0.90;;;;;;;;;;10273530;28;20162;-70
2022/01/06 05:59:50;;;;;;;;;;;;;;;;;;10267215;28;20047;-72
2022/01/06 06:04:54;;;;;;;1.10;0.47;;;;;;;;;;10256487;28;19922;-71
2022/01/06 06:09:58;;;;;;;2.28;1.30;;;;;;;;;;10246923;28;20428;-71
2022/01/06 06:15:01;;;;;;;2.70;0.50;;;;;;;;;;10257666;28;20353;-71
2022/01/06 06:20:05;;;;;;;3.03;1.00;;;;;;;;;;10246323;28;20043;-71
2022/01/06 06:25:09;;;;;;;4.00;1.27;;;;;;;;;;10256777;23;20019;-77
2022/01/06 06:30:13;;;;;;;1.30;0.87;;;;;;;;;;10242425;29;20082;-77
2022/01/06 06:35:15;;;;;;;5.72;1.42;;;;;;;;;;10238338;29;20040;-78
2022/01/06 06:40:22;;;;;;;4.90;0.43;;;;;;;;;;10236946;29;20039;-78
2022/01/06 06:45:25;;;;;;;2.80;0.90;;;;;;;;;;10238166;29;20042;-78
2022/01/06 06:50:28;;;;;;;1.20;0.77;;;;;;;;;;10248374;29;20040;-78
2022/01/06 06:55:32;;;;;;;0.70;0.40;;;;;;;;;;10257790;29;20047;-79
2022/01/06 07:00:35;;;;;;;2.90;0.83;;;;;;;;;;10250090;29;20050;-77
2022/01/06 07:05:38;;;;;;;4.00;1.47;;;;;;;;;;10258817;29;20107;-79
2022/01/06 07:10:43;;;;;;;1.30;0.97;;;;;;;;;;10260693;29;20040;-78
2022/01/06 07:15:47;;;;;;;4.10;0.80;;;;;;;;;;10241708;29;20466;-77
2022/01/06 07:20:50;;;;;;;3.83;0.60;;;;;;;;;;10230785;29;20047;-78
2022/01/06 07:25:54;;;;;;;1.20;1.10;;;;;;;;;;10242745;29;20102;-78
2022/01/06 07:30:57;;;;;;;2.23;0.47;;;;;;;;;;10234061;29;20055;-78
2022/01/06 07:36:00;;;;;;;2.33;1.10;;;;;;;;;;10253171;29;20042;-78
2022/01/06 07:41:04;;;;;;;6.33;0.83;;;;;;;;;;10254551;29;20079;-78
2022/01/06 07:46:07;;;;;;;2.50;1.00;;;;;;;;;;10259856;29;20146;-78
2022/01/06 07:51:10;;;;;;;0.80;0.60;;;;;;;;;;10265419;28;20023;-78
2022/01/06 07:56:15;;;;;;;3.37;1.30;;;;;;;;;;10267277;28;20046;-77
2022/01/06 08:01:17;;;;;;;;;;;;;;;;;;10251045;29;20094;-78
2022/01/06 08:06:21;;;;;;;3.80;1.80;;;;;;;;;;10260021;29;20228;-77
2022/01/06 08:11:25;;;;;;;1.10;0.80;;;;;;;;;;10238127;29;20099;-77
2022/01/06 08:16:28;;;;;;;;;;;;;;;;;;10235812;29;20472;-77
2022/01/06 08:21:31;;;;;;;1.50;0.70;;;;;;;;;;10254329;29;19955;-79
2022/01/06 08:26:36;;;;;;;4.90;1.27;;;;;;;;;;10253844;28;20078;-78
2022/01/06 08:31:38;;;;;;;1.90;0.90;;;;;;;;;;10244720;29;20107;-78
2022/01/06 08:36:41;;;;;;;2.60;1.10;;;;;;;;;;10255836;29;20034;-78
2022/01/06 08:41:46;;;;;;;2.20;0.43;;;;;;;;;;10231585;29;20048;-78
2022/01/06 08:46:48;;;;;;;;;;;;;;;;;;10247524;29;20043;-79
2022/01/06 08:51:51;;;;;;;1.53;0.80;;;;;;;;;;10242309;29;20540;-77
2022/01/06 08:56:56;;;;;;;1.45;0.68;;;;;;;;;;10248534;29;20095;-79
2022/01/06 09:01:59;;;;;;;1.90;0.87;;;;;;;;;;10257482;29;20115;-78
2022/01/06 09:07:04;;;;;;;1.53;0.70;;;;;;;;;;10255197;29;20465;-79
2022/01/06 09:12:16;;;;;;;5.37;1.20;;;;;;;;;;10252249;29;20047;-78
2022/01/06 09:17:19;;;;;;;2.75;0.80;;;;;;;;;;10237622;29;20039;-79
2022/01/06 09:22:23;;;;;;;2.85;1.50;;;;;;;;;;10250169;29;20054;-79
2022/01/06 09:27:29;;;;;;;1.48;1.33;;;;;;;;;;10238412;29;20118;-79
2022/01/06 09:32:32;;;;;;;1.60;1.50;;;;;;;;;;10255936;29;20047;-79
2022/01/06 09:37:35;;;;;;;1.23;1.00;;;;;;;;;;10238995;28;20039;-78
2022/01/06 09:42:40;;;;;;;4.63;1.20;;;;;;;;;;10236530;29;20135;-79
2022/01/06 09:47:44;;;;;;;3.58;1.42;;;;;;;;;;10255826;29;20309;-79
2022/01/06 09:52:47;;;;;;;1.60;1.10;;;;;;;;;;10241861;29;20052;-79
2022/01/06 09:57:58;;;;;;;2.40;1.60;;;;;;;;;;10233090;29;20116;-79
2022/01/06 10:03:02;;;;;;;2.88;1.52;;;;;;;;;;10252752;29;20112;-78
2022/01/06 10:08:06;;;;;;;5.20;1.70;;;;;;;;;;10263294;29;20023;-78
2022/01/06 10:13:16;;;;;;;3.63;1.70;;;;;;;;;;10238710;29;20040;-78
2022/01/06 10:18:19;;;;;;;2.75;1.73;;;;;;;;;;10240121;29;20083;-79
2022/01/06 10:23:22;;;;;;;7.70;1.98;;;;;;;;;;10247368;29;20082;-80
2022/01/06 10:28:26;;;;;;;2.72;1.02;;;;;;;;;;10247549;29;20035;-79
2022/01/06 10:33:35;;;;;;;3.85;1.67;;;;;;;;;;10252607;29;20035;-79
2022/01/06 10:38:38;;;;;;;3.10;0.98;;;;;;;;;;10250534;29;20032;-77
2022/01/06 10:43:42;;;;;;;3.73;1.30;;;;;;;;;;10254421;28;20046;-77
2022/01/06 10:48:45;;;;;;;1.80;1.00;;;;;;;;;;10234842;28;20143;-79
2022/01/06 10:53:49;;;;;;;2.70;1.00;;;;;;;;;;10239564;29;20039;-78
2022/01/06 10:58:56;;;;;;;0.60;0.50;;;;;;;;;;10246117;29;20031;-79
2022/01/06 11:03:59;;;;;;;1.53;1.07;;;;;;;;;;10248112;29;20048;-79
2022/01/06 11:09:01;;;;;;;2.03;1.17;;;;;;;;;;10251998;29;20117;-79
2022/01/06 11:14:06;;;;;;;3.93;0.90;;;;;;;;;;10248891;29;20642;-79
2022/01/06 11:19:09;;;;;;;4.70;1.70;;;;;;;;;;10243981;28;20035;-79
2022/01/06 11:24:16;;;;;;;1.90;1.08;;;;;;;;;;10248592;28;20065;-79
2022/01/06 11:29:25;;;;;;;4.00;1.80;;;;;;;;;;10233665;29;20035;-77
2022/01/06 11:34:29;;;;;;;3.90;1.70;;;;;;;;;;10253080;29;20043;-77
2022/01/06 11:39:32;;;;;;;6.97;2.08;;;;;;;;;;10254176;29;20036;-78
2022/01/06 11:44:48;;;;;;;2.47;1.23;;;;;;;;;;10234313;29;20051;-78
2022/01/06 11:49:52;;;;;;;1.53;1.17;;;;;;;;;;10239481;29;20039;-79
2022/01/06 11:54:57;;;;;;;2.30;1.73;;;;;;;;;;10258594;29;20106;-78
2022/01/06 12:00:13;;;;;;;10.57;1.60;;;;;;;;;;10239274;23;20050;-76
2022/01/06 12:05:16;;;;;;;1.67;1.10;;;;;;;;;;10223780;29;20047;-77
2022/01/06 12:10:20;;;;;;;3.37;1.00;;;;;;;;;;10195908;29;20046;-78
2022/01/06 12:15:24;;;;;;;3.40;1.77;;;;;;;;;;10207145;29;20048;-78
2022/01/06 12:20:26;;;;;;;;;;;;;;;;;;10196118;29;20035;-76
2022/01/06 12:25:29;;;;;;;1.90;1.07;;;;;;;;;;10200842;29;19931;-77
2022/01/06 12:30:35;;;;;;;3.50;1.63;;;;;;;;;;10201168;28;20103;-79
2022/01/06 12:35:43;;;;;;;2.87;1.50;;;;;;;;;;10224208;28;20179;-77
2022/01/06 12:40:46;;;;;;;2.10;1.90;;;;;;;;;;10201337;29;20134;-78
2022/01/06 12:46:10;;;;;;;1.42;1.33;;;;;;;;;;10196207;29;20036;-77
2022/01/06 12:51:17;;;;;;;3.00;1.70;;;;;;;;;;10194831;29;20538;-77
2022/01/06 12:56:24;;;;;;;3.80;2.00;;;;;;;;;;10220026;23;20065;-80
2022/01/06 13:01:30;;;;;;;2.75;0.80;;;;;;;;;;10272513;28;20538;-79
2022/01/06 13:06:35;;;;;;;2.67;1.98;;;;;;;;;;10274882;28;20166;-79
2022/01/06 13:11:45;;;;;;;1.48;1.10;;;;;;;;;;10272944;28;20408;-79
2022/01/06 13:16:50;;;;;;;3.90;1.70;;;;;;;;;;10294635;28;20138;-80
2022/01/06 13:21:57;;;;;;;5.18;1.80;;;;;;;;;;10270112;28;20462;-79
2022/01/06 13:27:01;;;;;;;6.63;1.35;;;;;;;;;;10269173;28;20039;-78
2022/01/06 13:32:07;;;;;;;5.05;1.48;;;;;;;;;;10272331;28;20039;-76
2022/01/06 13:37:12;;;;;;;2.30;1.40;;;;;;;;;;10272839;28;20133;-79
2022/01/06 13:42:14;;;;;;;;;;;;;;;;;;10274753;28;20051;-78
2022/01/06 13:47:29;;;;;;;1.23;0.80;;;;;;;;;;10279289;28;19926;-78
2022/01/06 13:52:31;;;;;;;1.33;0.95;;;;;;;;;;10286728;28;20047;-78
2022/01/06 13:57:35;;;;;;;5.57;2.57;;;;;;;;;;10294016;28;20039;-81
2022/01/06 14:02:40;;;;;;;1.60;1.17;;;;;;;;;;10293024;28;20582;-76
2022/01/06 14:07:43;;;;;;;9.60;1.23;;;;;;;;;;10298940;28;20055;-79
2022/01/06 14:12:47;;;;;;;1.20;0.60;;;;;;;;;;10303774;28;20058;-78
2022/01/06 14:17:51;;;;;;;2.25;1.35;;;;;;;;;;10314971;28;20062;-76
2022/01/06 14:22:54;;;;;;;;;;;;;;;;;;10290386;28;20113;-79
2022/01/06 14:27:57;;;;;;;3.13;1.35;;;;;;;;;;10305253;28;19972;-79
2022/01/06 14:33:02;;;;;;;3.93;1.73;;;;;;;;;;10301278;28;20074;-78
2022/01/06 14:38:05;;;;;;;1.92;1.02;;;;;;;;;;10286976;28;20687;-78
2022/01/06 14:43:08;;;;;;;1.40;0.65;;;;;;;;;;10280139;28;20035;-80
2022/01/06 14:48:12;;;;;;;2.63;0.93;;;;;;;;;;10285267;28;20057;-79
2022/01/06 14:53:15;;;;;;;1.37;0.37;;;;;;;;;;10288289;28;20036;-80
2022/01/06 14:58:18;;;;;;;3.50;1.33;;;;;;;;;;10267576;28;20049;-81
2022/01/06 15:03:23;;;;;;;2.87;1.10;;;;;;;;;;10282698;28;20039;-81
2022/01/06 15:08:30;;;;;;;4.63;1.33;;;;;;;;;;10281419;28;20091;-80
2022/01/06 15:13:34;;;;;;;3.33;1.77;;;;;;;;;;10274800;28;20503;-80
2022/01/06 15:18:40;;;;;;;3.40;0.68;;;;;;;;;;10282560;28;20105;-80
2022/01/06 15:23:43;;;;;;;5.17;1.57;;;;;;;;;;10289512;28;20070;-80
2022/01/06 15:28:54;;;;;;;2.00;1.17;;;;;;;;;;10282954;28;20035;-80
2022/01/06 15:33:58;;;;;;;1.93;1.23;;;;;;;;;;10277945;28;20035;-80
2022/01/06 15:39:01;;;;;;;1.35;0.70;;;;;;;;;;10281577;28;20063;-81
2022/01/06 15:44:05;;;;;;;5.77;1.80;;;;;;;;;;10282113;28;20043;-82
2022/01/06 15:49:09;;;;;;;2.67;0.80;;;;;;;;;;10287474;28;20031;-81
2022/01/06 15:54:12;;;;;;;;;;;;;;;;;;10286269;28;20324;-80
2022/01/06 15:59:17;;;;;;;4.10;0.80;;;;;;;;;;10281900;28;19937;-80
2022/01/06 16:09:43;;;;;;;5.97;1.90;;;;;;;;;;10278051;28;20037;-81
2022/01/06 16:14:46;;;;;;;1.67;1.10;;;;;;;;;;10268848;28;20042;-81
2022/01/06 16:19:50;;;;;;;3.83;1.47;;;;;;;;;;10277720;28;20038;-81
2022/01/06 16:24:53;;;;;;;;;;;;;;;;;;10276057;28;20074;-78
2022/01/06 16:30:01;;;;;;;7.57;2.73;;;;;;;;;;10275775;28;20056;-78
2022/01/06 16:35:07;;;;;;;1.90;1.43;;;;;;;;;;10282856;28;20050;-77
2022/01/06 16:40:10;;;;;;;8.43;1.87;;;;;;;;;;10276035;28;20074;-80
2022/01/06 16:45:13;;;;;;;1.97;1.07;;;;;;;;;;10270738;28;20063;-78
2022/01/06 16:50:18;;;;;;;8.60;2.10;;;;;;;;;;10298238;28;20046;-77
2022/01/06 16:55:22;;;;;;;10.30;2.33;;;;;;;;;;10281752;28;20055;-76
2022/01/06 17:00:25;;;;;;;3.28;1.27;;;;;;;;;;10289257;28;20472;-80
2022/01/06 17:05:32;;;;;;;2.00;0.80;;;;;;;;;;10282130;28;20053;-80
2022/01/06 17:10:35;;;;;;;2.47;1.67;;;;;;;;;;10268261;28;20066;-78
2022/01/06 17:15:38;;;;;;;8.53;2.80;;;;;;;;;;10275461;28;20051;-78
2022/01/06 17:20:42;;;;;;;7.63;2.20;;;;;;;;;;10269269;28;20031;-80
2022/01/06 17:25:45;;;;;;;8.03;3.13;;;;;;;;;;10282225;28;20055;-79
2022/01/06 17:30:49;;;;;;;6.60;1.97;;;;;;;;;;10279570;28;20043;-78
2022/01/06 17:35:53;;;;;;;4.95;1.67;;;;;;;;;;10294074;28;20178;-80
2022/01/06 17:40:56;;;;;;;7.93;3.43;;;;;;;;;;10288832;28;20122;-79
2022/01/06 17:46:01;;;;;;;2.73;1.70;;;;;;;;;;10289099;28;20066;-78
2022/01/06 17:51:05;;;;;;;6.73;2.53;;;;;;;;;;10273538;28;20109;-79
2022/01/06 17:56:08;;;;;;;;;;;;;;;;;;10281978;28;20044;-79
2022/01/06 18:01:11;;;;;;;4.13;2.07;;;;;;;;;;10289453;28;20449;-78
2022/01/06 18:06:19;;;;;;;5.17;2.37;;;;;;;;;;10291159;28;20051;-80
2022/01/06 18:11:23;;;;;;;5.80;1.67;;;;;;;;;;10310025;28;20090;-78
2022/01/06 18:16:26;;;;;;;4.28;1.77;;;;;;;;;;10292767;28;20059;-78
2022/01/06 18:21:31;;;;;;;3.42;0.88;;;;;;;;;;10283354;28;20038;-79
2022/01/06 18:26:33;;;;;;;;;;;;;;;;;;10267875;28;20042;-79
2022/01/06 18:31:36;;;;;;;3.50;1.73;;;;;;;;;;10274177;23;19922;-72
2022/01/06 18:36:41;;;;;;;11.00;1.97;;;;;;;;;;10260652;28;20071;-73
2022/01/06 18:41:44;;;;;;;5.23;1.37;;;;;;;;;;10258244;28;20046;-73
2022/01/06 18:46:49;;;;;;;1.63;0.70;;;;;;;;;;10270135;28;20164;-72
2022/01/06 18:51:57;;;;;;;5.13;1.80;;;;;;;;;;10279001;28;20263;-75
2022/01/06 18:57:01;;;;;;;7.47;2.80;;;;;;;;;;10271356;28;20061;-74
2022/01/06 19:02:04;;;;;;;5.23;2.37;;;;;;;;;;10283222;23;20042;-74
2022/01/06 19:07:12;;;;;;;2.97;1.48;;;;;;;;;;10228362;28;20051;-74
2022/01/06 19:12:15;;;;;;;4.03;1.67;;;;;;;;;;10227285;28;20174;-74
2022/01/06 19:17:18;;;;;;;3.50;1.60;;;;;;;;;;10248311;28;20031;-76
2022/01/06 19:22:22;;;;;;;3.47;1.53;;;;;;;;;;10253211;28;20528;-74
2022/01/06 19:27:25;;;;;;;;;;;;;;;;;;10249846;28;20067;-74
2022/01/06 19:32:28;;;;;;;4.27;1.47;;;;;;;;;;10248043;28;20022;-75
2022/01/06 19:37:32;;;;;;;3.50;1.37;;;;;;;;;;10222624;28;20497;-75
2022/01/06 19:42:35;;;;;;;6.77;2.10;;;;;;;;;;10236876;28;20052;-74
2022/01/06 19:47:39;;;;;;;1.53;0.97;;;;;;;;;;10220225;28;20076;-75
2022/01/06 19:52:43;;;;;;;3.40;1.45;;;;;;;;;;10226337;28;20648;-75
2022/01/06 19:57:47;;;;;;;10.53;2.00;;;;;;;;;;10226794;28;20547;-75
2022/01/06 20:02:50;;;;;;;2.78;1.55;;;;;;;;;;10244531;28;20043;-76
2022/01/06 20:07:57;;;;;;;9.33;2.80;;;;;;;;;;10226312;29;20067;-74
2022/01/06 20:12:59;;;;;;;;;;;;;;;;;;10229483;28;20131;-74
2022/01/06 20:18:02;;;;;;;10.40;2.50;;;;;;;;;;10272031;28;19978;-73
2022/01/06 20:23:07;;;;;;;7.80;2.77;;;;;;;;;;10249224;28;20574;-74
2022/01/06 20:28:09;;;;;;;;;;;;;;;;;;10246281;28;20043;-75
2022/01/06 20:33:12;;;;;;;4.90;2.47;;;;;;;;;;10234813;28;19926;-74
2022/01/06 20:38:16;;;;;;;3.70;1.33;;;;;;;;;;10248245;28;22028;-72
2022/01/06 20:43:19;;;;;;;1.23;0.87;;;;;;;;;;10259013;28;20056;-73
2022/01/06 20:53:47;;;;;;;6.93;2.20;;;;;;;;;;10243529;29;20151;-75
2022/01/06 20:58:50;;;;;;;8.73;3.10;;;;;;;;;;10238149;28;20051;-74
2022/01/06 21:03:53;;;;;;;11.10;3.85;;;;;;;;;;10237294;28;20102;-74
2022/01/06 21:08:57;;;;;;;4.40;1.77;;;;;;;;;;10235407;29;20055;-74
2022/01/06 21:14:00;;;;;;;6.03;2.57;;;;;;;;;;10229265;28;20054;-75
2022/01/06 21:19:03;;;;;;;6.30;2.53;;;;;;;;;;10228457;28;20546;-76
2022/01/06 21:24:09;;;;;;;6.37;1.20;;;;;;;;;;10230502;29;20058;-75
2022/01/06 21:29:13;;;;;;;5.53;2.30;;;;;;;;;;10224846;28;20036;-74
2022/01/06 21:34:16;;;;;;;2.08;1.25;;;;;;;;;;10253776;28;20148;-76
2022/01/06 21:39:20;;;;;;;5.97;2.70;;;;;;;;;;10239399;28;20110;-75
2022/01/06 21:44:23;;;;;;;;;;;;;;;;;;10234418;28;20118;-77
2022/01/06 21:49:26;;;;;;;5.07;1.90;;;;;;;;;;10225765;28;19978;-75
2022/01/06 21:54:30;;;;;;;3.43;1.70;;;;;;;;;;10238438;29;20036;-75
2022/01/06 21:59:34;;;;;;;6.87;1.93;;;;;;;;;;10236366;28;20555;-75
2022/01/06 22:04:42;;;;;;;5.07;1.07;;;;;;;;;;10235616;28;20063;-75
2022/01/06 22:09:49;;;;;;;5.10;2.10;;;;;;;;;;10229665;29;20465;-75
2022/01/06 22:14:52;;;;;;;7.27;2.30;;;;;;;;;;10233374;28;20039;-74
2022/01/06 22:19:56;;;;;;;4.20;2.37;;;;;;;;;;10248579;28;20062;-74
2022/01/06 22:25:01;;;;;;;10.63;3.17;;;;;;;;;;10230826;29;20043;-75
2022/01/06 22:30:04;;;;;;;3.93;1.50;;;;;;;;;;10229707;29;20039;-73
2022/01/06 22:35:12;;;;;;;4.75;2.50;;;;;;;;;;10230129;28;20047;-74
2022/01/06 22:40:17;;;;;;;8.10;2.53;;;;;;;;;;10225664;29;20123;-73
2022/01/06 22:45:20;;;;;;;6.93;3.00;;;;;;;;;;10240138;28;20039;-73
2022/01/06 22:50:23;;;;;;;10.17;2.10;;;;;;;;;;10218897;28;20039;-74
2022/01/06 22:55:28;;;;;;;2.83;1.60;;;;;;;;;;10220179;28;20066;-74
2022/01/06 23:00:32;;;;;;;9.07;3.07;;;;;;;;;;10224986;28;20048;-74
2022/01/06 23:05:35;;;;;;;3.22;1.00;;;;;;;;;;10241962;28;20039;-75
2022/01/06 23:10:41;;;;;;;7.10;1.40;;;;;;;;;;10226862;28;20035;-75
2022/01/06 23:15:44;;;;;;;7.00;2.70;;;;;;;;;;10230514;28;20795;-74
2022/01/06 23:20:46;;;;;;;5.80;1.90;;;;;;;;;;10225421;28;20039;-75
2022/01/06 23:25:51;;;;;;;7.77;2.60;;;;;;;;;;10225399;29;20054;-76
2022/01/06 23:30:53;;;;;;;;;;;;;;;;;;10218176;28;20045;-74
2022/01/06 23:35:56;;;;;;;2.57;1.60;;;;;;;;;;10229442;28;19922;-75
2022/01/06 23:41:01;;;;;;;9.43;3.33;;;;;;;;;;10245253;28;20128;-77
2022/01/06 23:46:04;;;;;;;6.57;2.90;;;;;;;;;;10242279;28;20125;-75
2022/01/06 23:51:07;;;;;;;13.60;5.47;;;;;;;;;;10222369;28;20031;-75
2022/01/06 23:56:12;;;;;;;5.93;3.17;;;;;;;;;;10244045;28;20043;-76
